Arkabutla, MS

2:47 PM CDT on April 29, 2017 (GMT -0500)
Eudora | | Change Station
Active Advisory: Wind Advisory

Elev 279 ft 34.80 °N, 90.15 °W | Updated 29 seconds ago

Partly Cloudy
Partly Cloudy
86.5 °F
Feels Like 92 °F
N
0.9
Wind Variable Wind from SSE
Gusts 2.5 mph

Today
High -- | Low -- °F
--% Chance of Precip.
Yesterday
High -- | Low -- °F
Precip. -- in
Pressure 29.82 in
Visibility 10.0 miles
Clouds Scattered Clouds 4300 ft
Scattered Clouds 5000 ft
Heat Index 92 °F
Dew Point 71 °F
Humidity 60%
Rainfall 0.00 in
Snow Depth Not available.
6:11 AM 7:44 PM
Waxing Crescent, 16% visible
METAR KUTA 291935Z AUTO 17020G28KT 10SM SCT043 SCT050 30/21 A2982 RMK AO2 TSNO
Pressure 29.82 in
Visibility 10.0 miles
Clouds Scattered Clouds 4300 ft
Scattered Clouds 5000 ft
Heat Index 92 °F
Dew Point 71 °F
Humidity 60%
Rainfall 0.00 in
Snow Depth Not available.
6:11 AM 7:44 PM
Waxing Crescent, 16% visible
METAR KUTA 291935Z AUTO 17020G28KT 10SM SCT043 SCT050 30/21 A2982 RMK AO2 TSNO

Get Your Daily Forecast Email!

Thanks for signing up!

Be on the lookout for a verification email in your inbox.

You'll start receiving severe weather alerts in your inbox..

×

10-Day Weather Forecast

Almanac

Astronomy

Apr. 29, 2017 Rise Set
Actual Time
Civil Twilight
Nautical Twilight
Astronomical Twilight
Moon
Length of Visible Light
Length of Day
Tomorrow will be .
, % of the Moon is Illuminated

Today's Extremes

State Highs State Lows

Community

WunderPhotos

WunderBlog® & News

Nearby

Air Quality

  Air Quality AQ Index Pollutant
Not available.

Snow Depth

Station Depth Elevation

Earthquake Activity

City Distance Mag. Time & Date
Minimum magnitude displayed is 2.5.

Coastal Water Temperatures

Place Temperature

Stations

Nearby Weather Stations

Station Location Temp. Windchill Dew Point Humidity Wind Precip. Elev Updated Type
                   

Watches & Warnings

Wind Advisory
Issued: 2:43 PM CDT Apr. 29, 2017 – National Weather Service

... Wind Advisory remains in effect until 7 PM CDT this evening...

* winds... south winds sustained of 20 to 30 mph... with gusts to
40 mph.

* Timing... 9 am CDT Saturday morning through 7 PM CDT Saturday
evening.

* Impacts... loose outdoor items will be vulnerable in the wind.
Driving may become hazardous... especially for high profile
vehicles on west to east roadways.

Precautionary/preparedness actions...

A Wind Advisory means that sustained winds of 25 to 39 mph are
expected... or gusts will range between 40 and 57 mph. Winds this
strong can make driving difficult... especially for high profile
vehicles. Use extra caution.